Startpagina
METAR-TAF:

METAR-TAF

Vliegvelden :

Jakoetsk, Rusland

Luchthaven Jakoetsk

breedte: 62-01N, lengte: 129-43E, hoogte: 103 m

Actueel weer

Dit bericht is 22 minuten geleden gemaakt, om 21:30 UTC
Wind 2 kt uit het noordnoordoosten
Temperatuur -44°C
Vochtigheid 57%
Druk 1023 hPa
Zicht: 0800 m
mist

METAR: UEEE 182130Z 03001MPS 0800 R23L/1800U FG NSC M44/M49 Q1023 R23L/490150 NOSIG RMK QFE758

Tijdstip: 06:52 (21:52 UTC)

Verwachting

Dit bericht is 1 uur en het 52 minuten geleden gemaakt, om 20:00 UTC
Verwachting geldig van 18 om 21 UTC tot 20 om 03 UTC
Wind 6 kt uit het noordnoordwesten
Zicht: 0300 m
op 300 ft
mist

TAF: UEEE 182000Z 1821/2003 34003MPS 0300 FG VV003 TXM41/1905Z TNM45/1900Z

Waarnemingen en weersverwachtingen van meer dan 4000 vliegvelden (METAR en TAF).

De beschikbare stations zijn de gele en rode punten op de kaart.

Ga met uw muis naar het station om de naam te zien.

Klik dan om waarnemingen en weersverwachtingen te zien.

kaart wijzigen: klik op de groene knoppen met een zwart kruis om in te zoomen, op de groene knop met een streepje om uit te zoomen of op de groene pijlen voor aangrenzende kaarten.


METAR-TAF: